Meteo Giornale » Osservazioni meteo Repubblica Ceca » Kbely

ore: 19:00 - Osservazioni Meteo Kbely
Lat. 50° 7' N Lon. 14° 32' E Alt. 286 metri s.l.m.

sereno Europe/Prague

29 °C

Sereno

Temp. 24 Ore

16 °C

30 °C

Sud-Est

14.8 Km/h

Dew point 15 °C

Umidità 42 %

Visibilità  10 Km

Il sole sorge alle ore 04:49

Il sole tramonta alle ore 21:16

Data e Ora Cielo e Fenomeni T °C DP °C Um. % Pres. hPa Vis. km Vento km/h
Oggi h: 19:00 sereno Sereno 29 15 42 1015 10 SE 14.8
Oggi h: 18:00 sereno Sereno 30 15 40 1015 10 SE 13
Oggi h: 17:00 sereno Sereno 30 15 40 1015 10 SE 13
Oggi h: 16:00 sereno Sereno 30 14 37 1015 10 E/SE 18.5
Oggi h: 15:00 sereno Sereno 30 13 35 1015 10 SE 18.5
Oggi h: 14:00 sereno Sereno 29 14 39 1016 10 E/SE 14.8
Oggi h: 13:00 sereno Sereno 29 14 39 1016 10 E/SE 18.5
Oggi h: 12:00 sereno Sereno 28 13 39 1016 10 SE 18.5
Oggi h: 11:00 sereno Sereno 27 14 44 1016 10 SE 14.8
Oggi h: 10:00 sereno Sereno 25 15 53 1017 10 E 14.8
Oggi h: 09:00 sereno Sereno 23 15 60 1017 10 E 14.8
Oggi h: 08:00 sereno Sereno 21 14 64 1017 10 E/NE 11.1
Oggi h: 07:00 sereno Sereno 19 13 68 1017 10 E/NE 13
Oggi h: 06:00 sereno Sereno 16 13 82 1017 10 E/NE 13
Oggi h: 04:00 sereno Sereno 19 12 63 1016 10 E 7.4
Oggi h: 03:00 sereno Sereno 20 12 59 1016 10 E 11.1
Oggi h: 02:00 sereno Sereno 22 12 53 1017 10 E/SE 13
Oggi h: 00:00 sereno Sereno 21 12 56 1017 10 E/SE 9.3
Ieri h: 23:00 sereno Sereno 22 12 53 1017 10 SE 9.3
Ieri h: 22:00 sereno Sereno 23 13 53 1017 10 E/SE 13
Ieri h: 21:00 sereno Sereno 25 13 47 1016 10 E/SE 9.3